Time;durP1;ratioP1;P1;durP2;ratioP2;P2;SDS_P1;SDS_P2;PMS_P1;PMS_P2;Temp;Humidity;BMP_temperature;BMP_pressure;BME280_temperature;BME280_humidity;BME280_pressure;Samples;Min_cycle;Max_cycle;Signal;HPM_P1;HPM_P2
2023/07/04 00:16:08;;;;;;;;;;;;;;;26.59;45.06;100141.84;41830692;28;19932;-83
2023/07/04 00:36:10;;;;;;;;;;;;;;;26.59;45.13;100125.09;41823238;28;19925;-82
2023/07/04 00:56:12;;;;;;;;;;;;;;;26.57;45.50;100129.72;41822066;28;20370;-81
2023/07/04 01:16:14;;;;;;;;;;;;;;;26.57;45.15;100117.25;41835345;28;19968;-82
2023/07/04 01:36:16;;;;;;;;;;;;;;;26.55;45.48;100103.34;41839494;28;19929;-81
2023/07/04 01:56:16;;;;;;;;;;;;;;;26.52;45.48;100138.16;41839293;28;19928;-81
2023/07/04 02:16:16;;;;;;;;;;;;;;;26.50;45.55;100159.56;41890406;28;19924;-82
2023/07/04 02:36:17;;;;;;;;;;;;;;;26.49;45.70;100192.41;41915874;28;20409;-81
2023/07/04 02:56:17;;;;;;;;;;;;;;;26.49;45.25;100232.25;41924774;28;19954;-79
2023/07/04 03:16:18;;;;;;;;;;;;;;;26.48;45.30;100232.41;41898384;28;19970;-81
2023/07/04 03:36:19;;;;;;;;;;;;;;;26.47;45.71;100258.09;41912316;28;19933;-82
2023/07/04 03:56:20;;;;;;;;;;;;;;;26.46;45.84;100245.81;41882066;28;19929;-81
2023/07/04 04:16:22;;;;;;;;;;;;;;;26.44;45.82;100241.66;41885311;28;19932;-82
2023/07/04 04:36:22;;;;;;;;;;;;;;;26.44;46.13;100242.50;41843051;28;19931;-81
2023/07/04 04:56:22;;;;;;;;;;;;;;;26.42;46.15;100233.03;41855268;28;19925;-82
2023/07/04 05:16:22;;;;;;;;;;;;;;;26.40;46.04;100283.63;41868190;28;19924;-81
2023/07/04 05:36:24;;;;;;;;;;;;;;;26.42;46.09;100283.47;41862037;28;19958;-81
2023/07/04 05:56:24;;;;;;;;;;;;;;;26.41;46.17;100298.56;41856931;28;19971;-83
2023/07/04 06:16:25;;;;;;;;;;;;;;;26.40;46.82;100310.16;41849216;28;19931;-80
2023/07/04 06:36:25;;;;;;;;;;;;;;;26.40;46.80;100334.06;41857262;28;19977;-82
2023/07/04 06:56:25;;;;;;;;;;;;;;;26.40;46.60;100339.38;41846999;28;19932;-83
2023/07/04 07:16:28;;;;;;;;;;;;;;;26.39;46.55;100332.41;41827227;28;19925;-83
2023/07/04 07:36:32;;;;;;;;;;;;;;;26.41;46.24;100332.25;41822414;28;19929;-82
2023/07/04 07:56:44;;;;;;;;;;;;;;;26.42;46.46;100345.38;41822117;28;20206;-83
2023/07/04 08:16:49;;;;;;;;;;;;;;;26.44;46.43;100342.53;41849790;28;20456;-82
2023/07/04 08:36:50;;;;;;;;;;;;;;;26.42;46.33;100361.28;41869570;28;19925;-82
2023/07/04 08:56:50;;;;;;;;;;;;;;;26.39;46.70;100351.00;41855788;28;19964;-82
2023/07/04 09:16:52;;;;;;;;;;;;;;;26.40;46.60;100355.28;41878415;28;19924;-82
2023/07/04 09:36:52;;;;;;;;;;;;;;;26.40;46.38;100357.94;41906076;28;19982;-81
2023/07/04 09:56:52;;;;;;;;;;;;;;;26.41;46.62;100359.63;41926610;28;19924;-82
2023/07/04 10:16:53;;;;;;;;;;;;;;;26.43;46.70;100357.66;41892469;28;20393;-82
2023/07/04 10:36:54;;;;;;;;;;;;;;;26.48;46.27;100346.56;41854216;28;19932;-82
2023/07/04 10:56:58;;;;;;;;;;;;;;;26.52;46.47;100332.00;41852262;28;19944;-80
2023/07/04 11:17:04;;;;;;;;;;;;;;;26.56;46.36;100335.16;41841439;28;19935;-81
2023/07/04 11:37:05;;;;;;;;;;;;;;;26.61;46.23;100314.28;41817820;28;20046;-81
2023/07/04 11:57:08;;;;;;;;;;;;;;;26.69;46.52;100301.88;41837501;28;19925;-80
2023/07/04 12:17:11;;;;;;;;;;;;;;;26.72;46.19;100305.22;41873115;28;20373;-82
2023/07/04 12:37:19;;;;;;;;;;;;;;;26.71;46.13;100296.44;41920513;28;19971;-82
2023/07/04 12:57:21;;;;;;;;;;;;;;;26.72;46.09;100282.16;41920773;28;19932;-82
2023/07/04 13:17:23;;;;;;;;;;;;;;;26.71;46.47;100279.63;41910847;28;19964;-81
2023/07/04 13:37:23;;;;;;;;;;;;;;;26.68;46.38;100278.13;41912789;28;19948;-81
2023/07/04 13:57:24;;;;;;;;;;;;;;;26.66;46.49;100258.91;41901797;28;19924;-79
2023/07/04 14:17:24;;;;;;;;;;;;;;;26.75;46.11;100250.00;41908892;28;19958;-80
2023/07/04 14:37:24;;;;;;;;;;;;;;;26.89;46.21;100218.50;41873458;28;19933;-80
2023/07/04 14:57:26;;;;;;;;;;;;;;;26.99;46.04;100195.28;41872574;28;19951;-82
2023/07/04 15:17:26;;;;;;;;;;;;;;;27.08;45.58;100182.84;41901278;28;19932;-81
2023/07/04 15:37:27;;;;;;;;;;;;;;;27.16;45.37;100174.91;41894027;28;19925;-81
2023/07/04 15:57:27;;;;;;;;;;;;;;;27.23;45.50;100154.63;41909561;28;19991;-81
2023/07/04 16:17:28;;;;;;;;;;;;;;;27.27;45.25;100155.13;41900956;28;19932;-80
2023/07/04 16:37:29;;;;;;;;;;;;;;;27.27;45.32;100140.00;41904219;28;19940;-81
2023/07/04 16:57:31;;;;;;;;;;;;;;;27.24;45.25;100136.84;41897621;28;20432;-80
2023/07/04 17:17:32;;;;;;;;;;;;;;;27.20;45.52;100132.88;41941227;28;19963;-82
2023/07/04 17:37:32;;;;;;;;;;;;;;;27.10;45.45;100139.16;41919700;28;19935;-81
2023/07/04 17:57:33;;;;;;;;;;;;;;;27.04;45.60;100142.47;41915149;28;19978;-81
2023/07/04 18:17:33;;;;;;;;;;;;;;;26.98;46.11;100164.41;41890332;28;20381;-78
2023/07/04 18:37:33;;;;;;;;;;;;;;;26.91;46.01;100180.13;41826472;28;19925;-78
2023/07/04 18:57:34;;;;;;;;;;;;;;;26.85;46.44;100204.69;41832526;28;19932;-78
2023/07/04 19:17:34;;;;;;;;;;;;;;;26.80;46.22;100223.78;41807615;28;19928;-80
2023/07/04 19:37:39;;;;;;;;;;;;;;;26.76;46.52;100235.72;41811384;28;19932;-78
2023/07/04 19:57:40;;;;;;;;;;;;;;;26.72;46.41;100258.25;41804343;28;19940;-82
2023/07/04 20:17:41;;;;;;;;;;;;;;;26.68;46.82;100256.88;41770849;28;19939;-81
2023/07/04 20:37:41;;;;;;;;;;;;;;;26.65;46.62;100268.66;41784459;28;19925;-81
2023/07/04 20:57:42;;;;;;;;;;;;;;;26.65;46.73;100255.38;41790550;28;19928;-80
2023/07/04 21:17:44;;;;;;;;;;;;;;;26.63;46.61;100260.00;41811803;28;19925;-81
2023/07/04 21:37:44;;;;;;;;;;;;;;;26.61;46.87;100271.78;41851371;28;19933;-80
2023/07/04 21:57:45;;;;;;;;;;;;;;;26.58;46.86;100275.59;41842455;28;19959;-80
2023/07/04 22:17:45;;;;;;;;;;;;;;;26.58;46.55;100274.78;41837536;28;19925;-81
2023/07/04 22:37:46;;;;;;;;;;;;;;;26.55;46.63;100267.09;41828699;28;19928;-81
2023/07/04 22:57:46;;;;;;;;;;;;;;;26.52;46.60;100271.75;41823283;28;20011;-83
2023/07/04 23:29:17;;;;;;;;;;;;;;;26.49;47.12;100269.41;41855502;27;19971;-80
2023/07/04 23:49:18;;;;;;;;;;;;;;;26.48;47.10;100272.22;41869022;28;20201;-80
